Bayside, NY (11359)

7:50 AM EST on December 08, 2016 (GMT -0500)
Flushing | | Change Station

Elev 98 ft 40.75 °N, 73.78 °W | Updated 24 seconds ago

Mostly Cloudy
Mostly Cloudy
39.2 °F
Feels Like 39 °F
N
0.0
Wind Variable Wind from ESE
Gusts 0.0 mph

Today
High -- | Low -- °F
--% Chance of Precip.
Yesterday
High -- | Low -- °F
Precip. -- in
Pressure 29.98 in
Visibility 10.0 miles
Clouds Scattered Clouds 11000 ft
Mostly Cloudy 25000 ft
Windchill 39 °F
Dew Point 30 °F
Humidity 69%
Rainfall 0.00 in
Snow Depth Not available.
7:07 AM 4:27 PM
Waxing Gibbous, 63% visible
METAR KLGA 081151Z COR 30008KT 10SM SCT110 BKN250 06/M02 A2998 RMK AO2 SLP152 T00611017 10072 20061 55002
Pressure 29.98 in
Visibility 10.0 miles
Clouds Scattered Clouds 11000 ft
Mostly Cloudy 25000 ft
Windchill 39 °F
Dew Point 30 °F
Humidity 69%
Rainfall 0.00 in
Snow Depth Not available.
7:07 AM 4:27 PM
Waxing Gibbous, 63% visible
METAR KLGA 081151Z COR 30008KT 10SM SCT110 BKN250 06/M02 A2998 RMK AO2 SLP152 T00611017 10072 20061 55002

10-Day Weather Forecast

Almanac

Astronomy

Dec. 08, 2016 Rise Set
Actual Time
Civil Twilight
Nautical Twilight
Astronomical Twilight
Moon
Length of Visible Light
Length of Day
Tomorrow will be .
, % of the Moon is Illuminated

Today's Extremes

State Highs State Lows

Community

WunderPhotos

Upload Photos

1,956,267 photos uploaded!

WunderBlog® & News

Nearby

Air Quality

  Air Quality AQ Index Pollutant
Not available.

Snow Depth

Station Depth Elevation

Earthquake Activity

City Distance Mag. Time & Date
Minimum magnitude displayed is 2.5.

Coastal Water Temperatures

Place Temperature

Stations

Nearby Weather Stations

Station Location Temp. Windchill Dew Point Humidity Wind Precip. Elev Updated Type
                   

Watches & Warnings

There are currently no watches in effect.